Time;durP1;ratioP1;P1;durP2;ratioP2;P2;SDS_P1;SDS_P2;PMS_P1;PMS_P2;Temp;Humidity;BMP_temperature;BMP_pressure;BME280_temperature;BME280_humidity;BME280_pressure;Samples;Min_cycle;Max_cycle;Signal;HPM_P1;HPM_P2
2022/08/19 00:01:50;;;;;;;16.70;14.90;;;;;;;28.94;44.79;100432.99;104483;1309;61261;-81
2022/08/19 00:04:16;;;;;;;14.30;11.80;;;;;;;28.93;45.04;100425.42;104536;1308;61388;-81
2022/08/19 00:06:43;;;;;;;12.20;10.90;;;;;;;28.93;45.07;100427.11;104491;1309;61271;-81
2022/08/19 00:09:10;;;;;;;11.80;9.40;;;;;;;28.93;45.04;100424.73;104486;1309;61136;-81
2022/08/19 00:11:37;;;;;;;10.30;8.50;;;;;;;28.93;45.01;100425.69;104529;1309;62942;-81
2022/08/19 00:14:04;;;;;;;12.40;9.30;;;;;;;28.92;44.83;100424.46;104577;1309;61622;-81
2022/08/19 00:16:29;;;;;;;11.10;9.20;;;;;;;28.92;45.15;100427.77;104577;1309;73659;-80
2022/08/19 00:18:55;;;;;;;11.50;9.10;;;;;;;28.91;44.70;100426.54;104521;1309;61332;-80
2022/08/19 00:21:21;;;;;;;12.50;9.90;;;;;;;28.91;45.10;100426.95;104481;1309;61396;-79
2022/08/19 00:23:47;;;;;;;13.40;9.50;;;;;;;28.91;45.17;100427.83;104553;1309;61132;-80
2022/08/19 00:26:13;;;;;;;12.70;9.90;;;;;;;28.91;44.97;100430.38;104596;1308;61252;-80
2022/08/19 00:28:38;;;;;;;12.70;8.90;;;;;;;28.90;44.96;100428.30;104562;1309;61262;-80
2022/08/19 00:31:05;;;;;;;11.50;8.90;;;;;;;28.90;44.79;100427.96;104526;1309;61265;-80
2022/08/19 00:33:34;;;;;;;11.60;8.50;;;;;;;28.90;44.82;100429.62;104475;1309;61320;-80
2022/08/19 00:36:01;;;;;;;12.50;8.90;;;;;;;28.90;44.98;100434.14;104501;1309;61821;-80
2022/08/19 00:38:27;;;;;;;11.30;8.90;;;;;;;28.89;45.04;100435.88;104456;1309;73067;-80
2022/08/19 00:40:54;;;;;;;11.70;8.50;;;;;;;28.89;45.02;100439.48;104564;1309;61285;-80
2022/08/19 00:43:21;;;;;;;11.70;9.70;;;;;;;28.89;45.05;100441.65;104535;1309;61342;-80
2022/08/19 00:45:47;;;;;;;23.90;21.30;;;;;;;28.89;44.97;100446.56;104513;1309;62136;-80
2022/08/19 00:48:14;;;;;;;27.10;21.80;;;;;;;28.89;45.13;100445.15;104594;1309;61334;-80
2022/08/19 00:50:40;;;;;;;19.00;15.10;;;;;;;28.88;45.13;100444.98;104535;1309;61222;-80
2022/08/19 00:53:06;;;;;;;16.30;12.50;;;;;;;28.88;45.03;100445.93;104454;1309;61388;-80
2022/08/19 00:55:31;;;;;;;16.30;12.20;;;;;;;28.88;44.85;100449.36;104491;1309;61385;-80
2022/08/19 00:58:20;;;;;;;14.20;12.00;;;;;;;28.88;44.98;100446.17;104508;1309;61376;-80
2022/08/19 01:00:46;;;;;;;13.90;12.00;;;;;;;28.87;45.02;100445.48;104588;1308;75891;-80
2022/08/19 01:03:15;;;;;;;15.70;11.80;;;;;;;28.87;44.98;100445.66;104508;1309;61347;-80
2022/08/19 01:05:41;;;;;;;14.40;12.30;;;;;;;28.87;45.02;100448.04;104561;1309;61352;-81
2022/08/19 01:08:07;;;;;;;14.50;11.70;;;;;;;28.87;44.97;100450.83;104408;1309;73714;-82
2022/08/19 01:10:37;;;;;;;15.20;12.10;;;;;;;28.87;45.01;100446.98;104469;1309;61323;-82
2022/08/19 01:13:03;;;;;;;12.70;11.00;;;;;;;28.87;45.00;100448.66;104484;1309;61828;-82
2022/08/19 01:15:31;;;;;;;15.20;10.50;;;;;;;28.87;44.86;100448.48;104603;1308;61301;-82
2022/08/19 01:17:58;;;;;;;13.40;11.40;;;;;;;28.86;45.08;100446.67;104581;1308;74054;-82
2022/08/19 01:20:24;;;;;;;13.80;10.60;;;;;;;28.86;45.04;100448.35;104576;1309;75893;-82
2022/08/19 01:22:52;;;;;;;12.60;10.80;;;;;;;28.86;45.11;100443.66;104426;1309;61249;-82
2022/08/19 01:25:19;;;;;;;11.30;9.80;;;;;;;28.86;45.20;100438.91;104608;1309;61375;-82
2022/08/19 01:27:47;;;;;;;13.60;10.40;;;;;;;28.86;44.91;100436.56;104507;1309;73827;-82
2022/08/19 01:30:25;;;;;;;12.30;10.30;;;;;;;28.86;44.92;100438.02;104587;1309;75847;-82
2022/08/19 01:32:51;;;;;;;11.80;10.50;;;;;;;28.86;45.22;100438.94;104354;1309;61324;-82
2022/08/19 01:35:17;;;;;;;13.10;10.40;;;;;;;28.86;45.03;100439.61;104524;1309;61482;-82
2022/08/19 01:37:52;;;;;;;13.30;10.10;;;;;;;28.87;45.21;100445.59;104499;1309;61400;-82
2022/08/19 01:40:20;;;;;;;13.10;10.00;;;;;;;28.87;45.38;100443.72;104482;1308;74591;-80
2022/08/19 01:42:47;;;;;;;12.40;10.60;;;;;;;28.87;44.92;100444.27;104618;1308;61346;-81
2022/08/19 01:45:13;;;;;;;11.80;10.00;;;;;;;28.87;45.23;100441.34;104523;1308;61162;-82
2022/08/19 01:47:38;;;;;;;11.40;10.10;;;;;;;28.88;45.09;100443.84;104437;1309;61343;-82
2022/08/19 01:50:05;;;;;;;12.50;9.60;;;;;;;28.88;45.17;100444.55;104458;1309;62375;-82
2022/08/19 01:52:31;;;;;;;12.40;9.50;;;;;;;28.88;44.90;100446.71;104387;1309;61285;-82
2022/08/19 01:54:56;;;;;;;11.30;8.70;;;;;;;28.88;45.21;100452.29;104596;1308;61265;-82
2022/08/19 01:57:22;;;;;;;10.20;8.60;;;;;;;28.88;45.03;100449.39;104600;1309;61255;-82
2022/08/19 01:59:48;;;;;;;11.20;8.90;;;;;;;28.88;45.08;100453.16;104628;1309;61263;-82
2022/08/19 02:02:13;;;;;;;10.10;9.00;;;;;;;28.88;45.13;100455.71;104501;1309;74839;-82
2022/08/19 02:04:39;;;;;;;11.80;9.40;;;;;;;28.88;45.26;100456.29;104428;1309;61813;-82
2022/08/19 02:07:06;;;;;;;10.00;8.30;;;;;;;28.89;45.17;100464.51;104589;1309;61278;-82
2022/08/19 02:09:32;;;;;;;11.10;9.00;;;;;;;28.88;45.17;100464.58;104548;1309;61266;-82
2022/08/19 02:11:58;;;;;;;12.60;9.00;;;;;;;28.88;44.99;100462.02;104505;1309;61274;-82
2022/08/19 02:14:23;;;;;;;11.70;9.70;;;;;;;28.88;45.14;100461.14;104581;1309;61174;-82
2022/08/19 02:16:49;;;;;;;10.10;8.40;;;;;;;28.89;45.08;100457.64;104593;1308;61305;-82
2022/08/19 02:19:15;;;;;;;10.90;8.60;;;;;;;28.89;45.23;100459.62;104531;1309;61226;-82
2022/08/19 02:21:40;;;;;;;9.70;8.40;;;;;;;28.89;45.08;100457.64;104547;1309;73854;-80
2022/08/19 02:24:06;;;;;;;10.20;8.30;;;;;;;28.89;45.14;100457.82;104451;1309;61301;-80
2022/08/19 02:26:32;;;;;;;11.50;8.60;;;;;;;28.88;45.18;100461.52;104556;1309;61401;-81
2022/08/19 02:28:58;;;;;;;8.70;7.80;;;;;;;28.89;45.23;100463.96;104481;1309;61373;-81
2022/08/19 02:31:24;;;;;;;9.40;8.00;;;;;;;28.88;45.14;100463.11;104557;1309;59404;-80
2022/08/19 02:33:52;;;;;;;10.30;8.30;;;;;;;28.88;45.11;100461.14;104450;1309;61298;-81
2022/08/19 02:36:17;;;;;;;9.50;8.30;;;;;;;28.89;45.21;100461.08;104487;1309;61282;-80
2022/08/19 02:38:43;;;;;;;9.80;8.40;;;;;;;28.88;45.18;100459.85;104499;1309;61271;-80
2022/08/19 02:41:15;;;;;;;10.00;7.90;;;;;;;28.88;45.07;100463.11;104504;1309;61631;-80
2022/08/19 02:43:41;;;;;;;9.60;8.40;;;;;;;28.88;45.20;100463.48;104494;1309;75222;-80
2022/08/19 02:46:20;;;;;;;9.50;8.00;;;;;;;28.89;45.08;100465.64;104574;1309;61358;-80
2022/08/19 02:48:48;;;;;;;9.70;8.70;;;;;;;28.88;45.04;100466.92;104615;1309;61132;-80
2022/08/19 02:51:25;;;;;;;8.80;7.90;;;;;;;28.88;45.22;100465.90;104323;1309;72914;-80
2022/08/19 02:53:51;;;;;;;9.70;8.00;;;;;;;28.88;45.16;100466.27;104484;1309;75957;-80
2022/08/19 02:56:17;;;;;;;8.50;7.60;;;;;;;28.88;45.26;100472.38;104583;1308;61272;-79
2022/08/19 02:58:43;;;;;;;9.30;7.60;;;;;;;28.88;45.35;100475.11;104499;1309;61196;-79
2022/08/19 03:01:09;;;;;;;10.10;7.60;;;;;;;28.88;45.28;100477.86;104520;1309;61220;-80
2022/08/19 03:03:35;;;;;;;9.80;8.00;;;;;;;28.88;45.29;100476.20;104480;1309;61381;-80
2022/08/19 03:06:12;;;;;;;9.00;7.80;;;;;;;28.88;45.39;100477.48;103510;1308;1543294;-80
2022/08/19 03:08:38;;;;;;;9.00;7.80;;;;;;;28.88;45.30;100475.13;104577;1309;61326;-80
2022/08/19 03:11:04;;;;;;;9.00;7.10;;;;;;;28.88;45.21;100474.96;104524;1309;61447;-80
2022/08/19 03:13:30;;;;;;;8.90;7.10;;;;;;;28.88;45.52;100475.88;104407;1309;61183;-80
2022/08/19 03:15:56;;;;;;;9.70;7.40;;;;;;;28.87;45.51;100475.35;104576;1308;61367;-80
2022/08/19 03:18:23;;;;;;;9.10;7.50;;;;;;;28.88;45.53;100478.23;104496;1309;61306;-80
2022/08/19 03:20:52;;;;;;;8.50;7.50;;;;;;;28.88;45.53;100475.48;104576;1309;61296;-80
2022/08/19 03:23:18;;;;;;;8.40;7.10;;;;;;;28.88;45.52;100475.33;104452;1309;72811;-80
2022/08/19 03:25:46;;;;;;;8.80;7.20;;;;;;;28.87;45.63;100471.73;104489;1309;61651;-80
2022/08/19 03:28:12;;;;;;;7.80;7.00;;;;;;;28.87;45.66;100474.87;104572;1309;61454;-80
2022/08/19 03:30:40;;;;;;;7.70;6.90;;;;;;;28.88;45.62;100475.84;104563;1309;61266;-80
2022/08/19 03:33:07;;;;;;;9.00;8.00;;;;;;;28.88;45.61;100477.69;104529;1309;72946;-80
2022/08/19 03:35:36;;;;;;;9.20;7.70;;;;;;;28.87;45.74;100481.21;104534;1309;76375;-80
2022/08/19 03:38:03;;;;;;;9.40;7.70;;;;;;;28.87;45.67;100482.06;104514;1309;61080;-81
2022/08/19 03:40:38;;;;;;;8.80;7.20;;;;;;;28.87;45.68;100485.52;104574;1309;61258;-80
2022/08/19 03:43:05;;;;;;;9.10;7.50;;;;;;;28.87;45.76;100485.16;104392;1309;73062;-80
2022/08/19 03:45:38;;;;;;;8.60;7.20;;;;;;;28.88;45.78;100491.27;104577;1308;75861;-80
2022/08/19 03:48:04;;;;;;;9.40;7.50;;;;;;;28.87;45.55;100495.10;104489;1309;61381;-80
2022/08/19 03:50:29;;;;;;;8.50;7.60;;;;;;;28.87;45.57;100497.48;104601;1309;61729;-80
2022/08/19 03:52:55;;;;;;;9.30;7.10;;;;;;;28.87;45.59;100500.38;104583;1309;61410;-80
2022/08/19 03:55:20;;;;;;;8.50;7.10;;;;;;;28.87;45.78;100503.84;104492;1309;61286;-80
2022/08/19 03:57:48;;;;;;;7.90;6.90;;;;;;;28.87;45.78;100505.77;104642;1308;61272;-79
2022/08/19 04:00:14;;;;;;;8.60;7.50;;;;;;;28.88;45.77;100507.73;104545;1308;61382;-80
2022/08/19 04:02:41;;;;;;;7.90;7.10;;;;;;;28.88;45.81;100508.29;104590;1309;61161;-80
2022/08/19 04:05:08;;;;;;;9.00;7.00;;;;;;;28.88;45.73;100509.20;104472;1309;72718;-80
2022/08/19 04:07:33;;;;;;;8.70;7.30;;;;;;;28.88;45.91;100508.45;104545;1308;61189;-81
2022/08/19 04:09:59;;;;;;;8.20;7.20;;;;;;;28.88;45.79;100512.21;104528;1309;61378;-80
2022/08/19 04:12:26;;;;;;;8.50;6.90;;;;;;;28.88;45.95;100510.80;104470;1309;61322;-81
2022/08/19 04:14:52;;;;;;;8.60;7.00;;;;;;;28.88;45.74;100511.84;104522;1308;61138;-81
2022/08/19 04:17:18;;;;;;;8.90;7.30;;;;;;;28.88;45.86;100512.02;104452;1309;61317;-81
2022/08/19 04:19:44;;;;;;;8.00;6.70;;;;;;;28.89;45.93;100508.17;104520;1309;61264;-81
2022/08/19 04:22:11;;;;;;;7.80;6.90;;;;;;;28.88;45.74;100508.59;104547;1308;61342;-80
2022/08/19 04:24:37;;;;;;;9.00;7.10;;;;;;;28.88;45.83;100506.41;104567;1309;61241;-80
2022/08/19 04:27:02;;;;;;;8.80;7.00;;;;;;;28.88;45.79;100508.04;104543;1309;61301;-80
2022/08/19 04:29:29;;;;;;;8.80;7.20;;;;;;;28.88;45.89;100511.26;104480;1309;61131;-80
2022/08/19 04:31:55;;;;;;;8.00;7.00;;;;;;;28.89;45.92;100511.27;104578;1308;61221;-80
2022/08/19 04:34:23;;;;;;;8.00;7.00;;;;;;;28.89;45.92;100514.16;104485;1309;61293;-80
2022/08/19 04:36:53;;;;;;;8.30;7.30;;;;;;;28.88;45.89;100513.10;104375;1309;72807;-81
2022/08/19 04:39:22;;;;;;;8.30;6.90;;;;;;;28.89;45.94;100512.85;104194;1309;74497;-81
2022/08/19 04:44:33;;;;;;;8.90;7.00;;;;;;;28.89;45.86;100507.42;104356;1309;61626;-83
2022/08/19 04:46:58;;;;;;;8.70;7.40;;;;;;;28.89;46.32;100507.73;104541;1308;74119;-80
2022/08/19 04:49:25;;;;;;;8.90;7.20;;;;;;;28.90;46.38;100508.73;104460;1309;61393;-80
2022/08/19 04:51:53;;;;;;;8.40;7.20;;;;;;;28.91;46.14;100511.37;104390;1309;61264;-80
2022/08/19 04:54:22;;;;;;;8.30;7.20;;;;;;;28.91;46.02;100511.74;104420;1309;61464;-82
2022/08/19 04:56:49;;;;;;;8.90;7.10;;;;;;;28.91;46.05;100513.00;104307;1309;72733;-81
2022/08/19 04:59:16;;;;;;;8.30;7.40;;;;;;;28.91;46.41;100512.98;104255;1309;75914;-80
2022/08/19 05:01:42;;;;;;;8.90;7.70;;;;;;;28.92;46.10;100517.46;104477;1309;61590;-80
2022/08/19 05:04:08;;;;;;;8.30;7.30;;;;;;;28.92;46.07;100514.36;104441;1309;61190;-80
2022/08/19 05:06:33;;;;;;;8.50;6.90;;;;;;;28.92;45.93;100516.47;104435;1309;61470;-81
2022/08/19 05:09:01;;;;;;;8.00;6.80;;;;;;;28.92;45.92;100518.66;104515;1309;61261;-80
2022/08/19 05:11:28;;;;;;;8.40;6.90;;;;;;;28.92;46.03;100521.56;104425;1309;62377;-80
2022/08/19 05:13:54;;;;;;;9.00;7.00;;;;;;;28.91;45.87;100524.89;104500;1309;61352;-80
2022/08/19 05:16:21;;;;;;;10.10;7.30;;;;;;;28.92;46.00;100525.36;104476;1309;61380;-80
2022/08/19 05:24:16;;;;;;;9.00;7.00;;;;;;;28.92;45.78;100519.77;104408;1309;61144;-80
2022/08/19 05:26:45;;;;;;;9.50;6.80;;;;;;;28.92;45.98;100515.41;104333;1309;61299;-80
2022/08/19 05:29:12;;;;;;;8.10;7.30;;;;;;;28.92;45.84;100516.81;104745;1309;74723;-80
2022/08/19 05:31:38;;;;;;;10.50;7.90;;;;;;;28.93;45.59;100513.86;104381;1309;61261;-80
2022/08/19 05:34:04;;;;;;;13.80;7.90;;;;;;;28.95;45.58;100516.42;104343;1309;61288;-80
2022/08/19 05:36:34;;;;;;;8.60;6.90;;;;;;;28.95;45.70;100512.56;104455;1308;61266;-80
2022/08/19 05:39:00;;;;;;;10.50;7.80;;;;;;;28.96;45.57;100513.38;104379;1309;74623;-80
2022/08/19 05:41:30;;;;;;;12.50;8.00;;;;;;;28.97;45.58;100516.95;104263;1309;62671;-80
2022/08/19 05:43:57;;;;;;;11.60;8.00;;;;;;;28.98;45.40;100516.85;104291;1308;61438;-80
2022/08/19 05:46:22;;;;;;;9.30;7.80;;;;;;;28.98;45.43;100518.95;104370;1309;72579;-80
2022/08/19 05:48:48;;;;;;;9.70;7.30;;;;;;;28.99;45.29;100521.37;104499;1308;61301;-80
2022/08/19 05:51:14;;;;;;;10.00;7.00;;;;;;;29.00;45.48;100521.84;104399;1309;61271;-80
2022/08/19 05:53:39;;;;;;;10.60;7.50;;;;;;;29.00;45.25;100525.40;104232;1309;61303;-80
2022/08/19 05:56:09;;;;;;;10.90;7.70;;;;;;;29.02;45.31;100526.52;104354;1309;61271;-80
2022/08/19 05:58:36;;;;;;;9.70;7.70;;;;;;;29.01;45.27;100525.82;104453;1309;74308;-80
2022/08/19 06:01:04;;;;;;;13.20;8.00;;;;;;;29.03;45.39;100526.22;104403;1309;61298;-80
2022/08/19 06:03:32;;;;;;;11.60;8.40;;;;;;;29.03;45.12;100527.45;104476;1309;61532;-82
2022/08/19 06:05:59;;;;;;;12.60;8.80;;;;;;;29.03;45.20;100528.91;104469;1309;73898;-81
2022/08/19 06:08:26;;;;;;;11.50;8.40;;;;;;;29.03;45.12;100525.95;104459;1309;74771;-82
2022/08/19 06:10:52;;;;;;;11.30;8.40;;;;;;;29.04;45.03;100526.05;104591;1309;61246;-81
2022/08/19 06:13:19;;;;;;;11.70;7.70;;;;;;;29.05;45.13;100522.38;104417;1309;61341;-79
2022/08/19 06:15:46;;;;;;;9.90;7.60;;;;;;;29.04;45.37;100521.71;104272;1309;61388;-80
2022/08/19 06:18:12;;;;;;;11.10;7.70;;;;;;;29.05;45.22;100523.41;104372;1309;75668;-81
2022/08/19 06:20:39;;;;;;;9.50;8.10;;;;;;;29.05;45.34;100525.37;104406;1308;61522;-80
2022/08/19 06:23:05;;;;;;;10.10;7.90;;;;;;;29.06;44.99;100523.82;104448;1309;61199;-80
2022/08/19 06:25:31;;;;;;;9.60;7.10;;;;;;;29.07;45.26;100522.14;104455;1309;61300;-80
2022/08/19 06:27:56;;;;;;;9.80;7.80;;;;;;;29.07;45.09;100522.46;104449;1309;61382;-80
2022/08/19 06:30:23;;;;;;;10.00;7.90;;;;;;;29.08;44.96;100527.25;104424;1309;61269;-80
2022/08/19 06:32:48;;;;;;;9.70;7.60;;;;;;;29.08;45.10;100526.66;104528;1309;61307;-81
2022/08/19 06:35:14;;;;;;;10.00;7.20;;;;;;;29.08;44.99;100524.15;104595;1309;61282;-81
2022/08/19 06:37:40;;;;;;;9.80;7.40;;;;;;;29.09;44.65;100524.09;104550;1308;72724;-80
2022/08/19 06:40:08;;;;;;;9.00;7.20;;;;;;;29.09;44.64;100523.89;104386;1309;61306;-81
2022/08/19 06:42:34;;;;;;;9.30;7.20;;;;;;;29.09;44.83;100524.60;104440;1308;61166;-80
2022/08/19 06:45:03;;;;;;;8.80;7.30;;;;;;;29.09;44.59;100518.62;104419;1309;61730;-80
2022/08/19 06:47:29;;;;;;;;;;;;;;;29.10;44.57;100518.93;104362;1309;72895;-80
2022/08/19 06:50:00;;;;;;;10.90;7.10;;;;;;;29.08;44.63;100520.04;104421;1309;61316;-80
2022/08/19 06:52:25;;;;;;;9.80;7.30;;;;;;;29.09;44.51;100522.76;104471;1309;61357;-80
2022/08/19 06:54:51;;;;;;;9.50;7.60;;;;;;;29.10;44.44;100520.73;104367;1309;60132;-80
2022/08/19 06:57:16;;;;;;;9.10;7.20;;;;;;;29.10;44.44;100518.85;104408;1309;61410;-81
2022/08/19 06:59:43;;;;;;;8.30;6.90;;;;;;;29.11;44.56;100517.86;104489;1309;61809;-80
2022/08/19 07:02:09;;;;;;;10.00;7.30;;;;;;;29.12;44.26;100520.49;104525;1309;61279;-81
2022/08/19 07:04:35;;;;;;;9.40;7.40;;;;;;;29.12;44.54;100519.39;104532;1308;61418;-80
2022/08/19 07:07:05;;;;;;;11.30;7.60;;;;;;;29.13;44.27;100521.54;104457;1309;61230;-80
2022/08/19 07:09:31;;;;;;;8.50;7.40;;;;;;;29.13;44.43;100522.35;104501;1309;75737;-81
2022/08/19 07:11:57;;;;;;;9.30;7.60;;;;;;;29.14;44.30;100522.79;104544;1309;61364;-80
2022/08/19 07:14:25;;;;;;;9.80;7.20;;;;;;;29.14;44.22;100520.45;104444;1309;61374;-81
2022/08/19 07:16:54;;;;;;;9.60;7.00;;;;;;;29.15;44.32;100517.29;104408;1309;73167;-80
2022/08/19 07:19:20;;;;;;;;;;;;;;;29.15;44.05;100518.05;104426;1309;74500;-80
2022/08/19 07:21:47;;;;;;;8.30;7.20;;;;;;;29.12;44.05;100519.39;104582;1308;62052;-80
2022/08/19 07:24:14;;;;;;;10.80;7.30;;;;;;;29.14;44.30;100518.31;104561;1308;61172;-81
2022/08/19 07:26:41;;;;;;;8.80;7.10;;;;;;;29.14;44.29;100515.00;104442;1309;71909;-80
2022/08/19 07:29:07;;;;;;;7.70;6.90;;;;;;;29.14;44.02;100513.21;104429;1309;75936;-80
2022/08/19 07:31:36;;;;;;;9.10;7.00;;;;;;;29.14;44.17;100511.38;104509;1309;61388;-80
2022/08/19 07:34:07;;;;;;;10.00;7.10;;;;;;;29.15;43.85;100506.96;104480;1309;61942;-80
2022/08/19 07:36:35;;;;;;;10.00;6.80;;;;;;;29.15;43.96;100507.33;104477;1309;73763;-80
2022/08/19 07:39:02;;;;;;;8.50;6.70;;;;;;;29.15;43.60;100509.85;104515;1308;74842;-80
2022/08/19 07:41:31;;;;;;;7.70;6.60;;;;;;;29.16;43.83;100511.24;104570;1309;61215;-81
2022/08/19 07:43:57;;;;;;;;;;;;;;;29.15;43.83;100511.65;104395;1309;62553;-80
2022/08/19 07:46:23;;;;;;;9.00;7.00;;;;;;;29.13;43.78;100510.44;104571;1308;61269;-80
2022/08/19 07:48:49;;;;;;;8.20;6.40;;;;;;;29.14;43.98;100512.64;104565;1308;61258;-81
2022/08/19 07:51:17;;;;;;;7.80;6.60;;;;;;;29.15;43.61;100508.97;104348;1309;61390;-80
2022/08/19 07:53:44;;;;;;;8.30;6.50;;;;;;;29.14;43.76;100507.20;104365;1308;61283;-80
2022/08/19 07:56:11;;;;;;;7.40;6.40;;;;;;;29.15;43.47;100511.11;104398;1309;73890;-80
2022/08/19 07:58:39;;;;;;;8.60;7.00;;;;;;;29.15;43.74;100508.76;104431;1309;74679;-81
2022/08/19 08:01:05;;;;;;;13.20;7.20;;;;;;;29.15;43.71;100503.13;104411;1309;61179;-79
2022/08/19 08:09:21;;;;;;;8.10;6.60;;;;;;;29.15;43.56;100499.49;104292;1308;74760;-80
2022/08/19 08:11:50;;;;;;;8.80;6.60;;;;;;;29.16;43.46;100496.91;104355;1309;61176;-82
2022/08/19 08:14:17;;;;;;;;;;;;;;;29.16;43.57;100500.27;104570;1306;61241;-82
2022/08/19 08:16:45;;;;;;;8.10;6.40;;;;;;;29.14;43.35;100499.97;104380;1308;73777;-80
2022/08/19 08:19:13;;;;;;;7.50;6.00;;;;;;;29.16;43.38;100498.90;104283;1309;74788;-82
2022/08/19 08:21:38;;;;;;;8.30;6.30;;;;;;;29.16;43.52;100494.29;104189;1310;61142;-80
2022/08/19 08:24:05;;;;;;;9.80;6.70;;;;;;;29.16;43.32;100493.39;104364;1308;61330;-80
2022/08/19 08:26:30;;;;;;;8.40;6.60;;;;;;;29.17;43.13;100491.11;104224;1310;61377;-82
2022/08/19 08:28:56;;;;;;;9.80;6.70;;;;;;;29.17;43.23;100484.74;104462;1307;61336;-81
2022/08/19 08:31:23;;;;;;;7.60;6.70;;;;;;;29.18;43.07;100485.89;104438;1308;61331;-81
2022/08/19 08:33:49;;;;;;;11.90;6.40;;;;;;;29.19;42.93;100484.23;104357;1309;61322;-81
2022/08/19 08:36:15;;;;;;;8.20;6.30;;;;;;;29.19;42.99;100485.46;104377;1309;61963;-80
2022/08/19 08:38:42;;;;;;;7.20;6.00;;;;;;;29.19;43.07;100487.45;104534;1307;61186;-81
2022/08/19 08:41:22;;;;;;;8.10;6.40;;;;;;;29.19;43.07;100484.00;104538;1309;61262;-81
2022/08/19 08:43:51;;;;;;;8.10;6.50;;;;;;;29.19;42.91;100483.45;104562;1309;61437;-82
2022/08/19 08:46:39;;;;;;;8.00;6.30;;;;;;;29.19;43.00;100484.59;104589;1308;73893;-82
2022/08/19 08:49:14;;;;;;;9.00;6.70;;;;;;;29.18;43.07;100484.84;104556;1309;75774;-82
2022/08/19 08:51:47;;;;;;;9.70;6.70;;;;;;;29.18;42.89;100481.58;104604;1308;61279;-82
2022/08/19 08:54:14;;;;;;;9.10;6.40;;;;;;;29.18;42.74;100481.75;104537;1308;61409;-82
2022/08/19 08:56:43;;;;;;;9.20;6.20;;;;;;;29.18;42.91;100476.89;105221;1308;72814;-80
2022/08/19 08:59:32;;;;;;;10.10;7.00;;;;;;;29.19;42.92;100472.47;104474;1307;76257;-80
2022/08/19 09:01:58;;;;;;;8.50;6.30;;;;;;;29.19;42.87;100466.98;104405;1309;61900;-80
2022/08/19 09:04:24;;;;;;;7.90;6.30;;;;;;;29.19;42.70;100468.94;104375;1309;61259;-80
2022/08/19 09:07:04;;;;;;;9.20;6.20;;;;;;;29.20;42.78;100475.05;104425;1309;61272;-80
2022/08/19 09:09:34;;;;;;;7.30;5.90;;;;;;;29.20;42.77;100474.66;104412;1308;74870;-80
2022/08/19 09:12:25;;;;;;;8.20;6.00;;;;;;;29.21;42.81;100471.32;105530;1308;61463;-80
2022/08/19 09:14:53;;;;;;;7.70;6.40;;;;;;;29.21;43.06;100473.48;104561;1308;61199;-80
2022/08/19 09:17:30;;;;;;;9.60;6.50;;;;;;;29.22;42.91;100474.85;104423;1309;73094;-80
2022/08/19 09:19:58;;;;;;;8.50;6.20;;;;;;;29.23;42.95;100471.45;104390;1309;74744;-81
2022/08/19 09:22:26;;;;;;;7.20;6.40;;;;;;;29.23;43.04;100469.79;104412;1308;61339;-81
2022/08/19 09:24:52;;;;;;;21.00;7.30;;;;;;;29.23;42.85;100468.87;104470;1308;64005;-80
2022/08/19 09:27:20;;;;;;;49.70;9.30;;;;;;;29.23;42.75;100468.54;104458;1308;61305;-80
2022/08/19 09:29:48;;;;;;;16.30;6.90;;;;;;;29.23;42.50;100469.12;104471;1308;75141;-81
2022/08/19 09:32:15;;;;;;;13.20;6.50;;;;;;;29.22;42.51;100468.60;104450;1309;61070;-80
2022/08/19 09:34:41;;;;;;;14.80;6.70;;;;;;;29.23;42.57;100466.23;104335;1309;61397;-80
2022/08/19 09:37:06;;;;;;;10.90;6.40;;;;;;;29.22;42.56;100465.50;104349;1309;62126;-80
2022/08/19 09:39:32;;;;;;;9.40;6.30;;;;;;;29.23;42.58;100466.36;104274;1309;61370;-80
2022/08/19 09:41:58;;;;;;;10.20;6.80;;;;;;;29.22;42.51;100464.05;104355;1307;59427;-80
2022/08/19 09:44:23;;;;;;;10.10;6.70;;;;;;;29.22;42.71;100466.80;104590;1308;61297;-80
2022/08/19 09:46:50;;;;;;;12.90;6.70;;;;;;;29.22;42.68;100464.13;104535;1309;61465;-80
2022/08/19 09:49:17;;;;;;;8.70;6.30;;;;;;;29.22;42.58;100465.59;104541;1309;72738;-80
2022/08/19 09:51:43;;;;;;;10.60;6.30;;;;;;;29.21;42.75;100463.47;104543;1309;74774;-81
2022/08/19 09:54:09;;;;;;;9.90;6.30;;;;;;;29.21;42.70;100463.27;104570;1309;61259;-81
2022/08/19 09:56:35;;;;;;;7.80;6.30;;;;;;;29.21;42.69;100463.13;104450;1306;61289;-81
2022/08/19 09:59:02;;;;;;;7.80;6.60;;;;;;;29.21;42.88;100460.85;104465;1308;61260;-82
2022/08/19 10:01:29;;;;;;;8.70;6.60;;;;;;;29.21;42.83;100461.20;104420;1308;61255;-80
2022/08/19 10:03:56;;;;;;;8.10;6.30;;;;;;;29.20;42.79;100458.34;104364;1309;61419;-80
2022/08/19 10:06:23;;;;;;;9.50;6.90;;;;;;;29.20;43.12;100454.06;104505;1309;61245;-80
2022/08/19 10:08:48;;;;;;;8.20;6.10;;;;;;;29.20;42.88;100455.83;105255;1307;59060;-80
2022/08/19 10:11:15;;;;;;;9.80;6.30;;;;;;;29.20;42.80;100455.05;104304;1308;61314;-80
2022/08/19 10:13:42;;;;;;;8.40;6.40;;;;;;;29.21;42.93;100456.27;105501;1308;61449;-80
2022/08/19 10:16:11;;;;;;;9.90;6.00;;;;;;;29.21;43.06;100451.30;105407;1309;59163;-81
2022/08/19 10:18:37;;;;;;;;;;;;;;;29.22;42.90;100446.14;105428;1307;66140;-81
2022/08/19 10:21:08;;;;;;;7.40;6.20;;;;;;;29.21;43.34;100448.58;105510;1307;59118;-81
2022/08/19 10:23:34;;;;;;;7.60;6.50;;;;;;;29.24;43.05;100441.08;105404;1308;59110;-83
2022/08/19 10:26:00;;;;;;;6.80;5.90;;;;;;;29.25;43.05;100432.80;105505;1307;59080;-83
2022/08/19 10:28:26;;;;;;;8.50;6.30;;;;;;;29.27;43.22;100429.20;105580;1307;59424;-83
2022/08/19 10:30:52;;;;;;;8.50;5.90;;;;;;;29.28;42.93;100427.65;105221;1309;61377;-81
2022/08/19 10:33:17;;;;;;;7.10;6.30;;;;;;;29.30;42.88;100430.13;104486;1309;61278;-82
2022/08/19 10:35:44;;;;;;;7.20;5.90;;;;;;;29.31;42.88;100426.38;104516;1308;61290;-82
2022/08/19 10:38:10;;;;;;;7.60;6.40;;;;;;;29.31;42.90;100428.32;104564;1309;61500;-82
2022/08/19 10:40:36;;;;;;;7.30;5.90;;;;;;;29.31;43.09;100427.60;104603;1309;62472;-82
2022/08/19 10:43:03;;;;;;;6.80;5.70;;;;;;;29.31;42.86;100426.71;104585;1309;61391;-82
2022/08/19 10:45:29;;;;;;;7.50;6.60;;;;;;;29.30;42.87;100417.11;104612;1309;61298;-82
2022/08/19 10:47:55;;;;;;;8.30;6.50;;;;;;;29.29;42.88;100420.78;104550;1308;61235;-82
2022/08/19 10:53:08;;;;;;;7.80;6.20;;;;;;;29.27;42.94;100421.77;104521;1309;75044;-82
2022/08/19 10:58:23;;;;;;;7.70;6.10;;;;;;;29.25;42.98;100417.98;104575;1309;61548;-82
2022/08/19 11:00:56;;;;;;;9.30;6.40;;;;;;;29.23;42.97;100416.67;104444;1309;73238;-82
2022/08/19 11:03:22;;;;;;;8.10;6.10;;;;;;;29.23;42.86;100416.55;104264;1309;75690;-82
2022/08/19 11:05:58;;;;;;;7.40;5.80;;;;;;;29.22;43.07;100413.95;104408;1309;61298;-81
2022/08/19 11:08:24;;;;;;;8.30;6.40;;;;;;;29.21;42.85;100414.55;104347;1312;61131;-81
2022/08/19 11:10:53;;;;;;;8.70;6.70;;;;;;;29.21;42.82;100409.55;104501;1309;61378;-81
2022/08/19 11:13:19;;;;;;;11.00;6.10;;;;;;;29.20;42.81;100414.48;104391;1309;73756;-81
2022/08/19 11:15:45;;;;;;;8.20;6.30;;;;;;;29.20;42.80;100417.09;104431;1309;61150;-79
2022/08/19 11:18:11;;;;;;;8.10;6.40;;;;;;;29.20;43.03;100418.31;104369;1309;61293;-81
2022/08/19 11:20:37;;;;;;;8.40;6.10;;;;;;;29.19;42.91;100412.95;104460;1308;61898;-81
2022/08/19 11:23:04;;;;;;;7.70;6.20;;;;;;;29.19;42.93;100405.89;104578;1309;61281;-81
2022/08/19 11:25:29;;;;;;;8.70;6.10;;;;;;;29.19;42.70;100404.66;104573;1309;61299;-81
2022/08/19 11:27:55;;;;;;;8.90;6.40;;;;;;;29.18;42.62;100397.50;104584;1309;61285;-81
2022/08/19 11:30:21;;;;;;;11.10;6.50;;;;;;;29.18;42.77;100395.86;104463;1309;61269;-81
2022/08/19 11:32:47;;;;;;;11.20;5.70;;;;;;;29.17;43.03;100393.11;104477;1309;61467;-81
2022/08/19 11:35:13;;;;;;;8.80;5.30;;;;;;;29.17;43.19;100391.11;104564;1309;74777;-81